createdAt,value
2018-07-10T05:45:17.643Z,1013.00
2018-07-10T05:46:15.882Z,1013.04
2018-07-10T05:48:10.639Z,1012.99
2018-07-10T05:50:24.038Z,1013.00
2018-07-10T05:51:24.561Z,1013.04
2018-07-10T05:53:17.106Z,1013.01
2018-07-10T05:54:16.584Z,1013.00
2018-07-10T05:56:10.065Z,1012.98
2018-07-10T05:57:09.783Z,1012.94
2018-07-10T05:59:02.710Z,1012.92
2018-07-10T06:00:02.576Z,1013.01
2018-07-10T06:01:57.273Z,1012.98
2018-07-10T06:02:57.927Z,1012.99
2018-07-10T06:04:51.066Z,1013.02
2018-07-10T06:05:50.642Z,1012.98
2018-07-10T06:07:42.198Z,1013.03
2018-07-10T06:08:42.145Z,1013.03
2018-07-10T06:10:35.579Z,1012.98
2018-07-10T06:11:35.570Z,1012.99
2018-07-10T06:13:31.023Z,1013.03
2018-07-10T06:14:30.503Z,1012.97
2018-07-10T06:16:21.417Z,1012.97
2018-07-10T06:17:22.645Z,1012.96
2018-07-10T06:19:15.410Z,1012.94
2018-07-10T06:20:14.985Z,1012.94
2018-07-10T06:22:10.175Z,1012.91
2018-07-10T06:23:10.196Z,1012.89
2018-07-10T06:25:01.918Z,1012.89
2018-07-10T06:26:01.928Z,1012.84
2018-07-10T06:27:55.291Z,1012.81
2018-07-10T06:28:54.985Z,1012.78
2018-07-10T06:30:50.311Z,1012.74
2018-07-10T06:31:50.297Z,1012.72
2018-07-10T06:33:42.343Z,1012.74
2018-07-10T06:34:41.963Z,1012.75
2018-07-10T06:36:35.230Z,1012.77
2018-07-10T06:37:35.326Z,1012.77
2018-07-10T06:39:31.309Z,1012.72
2018-07-10T06:40:29.211Z,1012.69
2018-07-10T06:42:23.144Z,1012.67
2018-07-10T06:43:22.557Z,1012.76
2018-07-10T06:45:15.856Z,1012.72
2018-07-10T06:46:15.436Z,1012.74
2018-07-10T06:48:09.794Z,1012.85
2018-07-10T06:49:09.755Z,1012.77
2018-07-10T06:51:03.661Z,1012.64
2018-07-10T06:52:03.359Z,1012.66
2018-07-10T06:53:57.596Z,1012.62
2018-07-10T06:54:56.433Z,1012.58
2018-07-10T06:56:50.479Z,1012.54
2018-07-10T06:57:50.372Z,1012.67
2018-07-10T06:59:43.826Z,1012.63
2018-07-10T07:00:43.831Z,1012.64
2018-07-10T07:02:38.732Z,1012.65
2018-07-10T07:03:37.064Z,1012.76
2018-07-10T07:05:30.053Z,1012.62
2018-07-10T07:06:30.425Z,1012.61
2018-07-10T07:08:23.878Z,1012.61
2018-07-10T07:09:23.394Z,1012.61
2018-07-10T07:11:17.104Z,1012.64
2018-07-10T07:12:17.197Z,1012.62
2018-07-10T07:14:11.534Z,1012.62
2018-07-10T07:15:11.168Z,1012.63
2018-07-10T07:17:05.547Z,1012.58
2018-07-10T07:18:12.402Z,1012.58
2018-07-10T07:20:05.985Z,1012.63
2018-07-10T07:22:20.614Z,1012.61
2018-07-10T07:23:19.807Z,1012.60
2018-07-10T07:25:13.324Z,1012.60
2018-07-10T07:26:12.878Z,1012.70
2018-07-10T07:28:07.007Z,1012.71
2018-07-10T07:29:06.629Z,1012.73
2018-07-10T07:31:01.498Z,1012.62
2018-07-10T07:32:00.937Z,1012.63
2018-07-10T07:33:54.392Z,1012.57
2018-07-10T07:34:54.368Z,1012.57
2018-07-10T07:36:51.248Z,1012.59
2018-07-10T07:37:47.751Z,1012.64
2018-07-10T07:39:42.738Z,1012.61
2018-07-10T07:40:41.043Z,1012.63
2018-07-10T07:42:34.494Z,1012.60
2018-07-10T07:43:35.999Z,1012.51
2018-07-10T07:45:28.592Z,1012.62
2018-07-10T07:46:29.125Z,1012.62
2018-07-10T07:48:24.425Z,1012.53
2018-07-10T07:49:21.286Z,1012.49
2018-07-10T07:51:15.033Z,1012.51
2018-07-10T07:52:14.864Z,1012.51
2018-07-10T07:54:08.660Z,1012.53
2018-07-10T07:55:08.118Z,1012.50
2018-07-10T07:57:02.084Z,1012.51
2018-07-10T07:58:01.417Z,1012.53
2018-07-10T07:59:54.515Z,1012.51
2018-07-10T08:00:56.611Z,1012.50
2018-07-10T08:02:47.757Z,1012.50
2018-07-10T08:03:48.319Z,1012.47
2018-07-10T08:05:41.669Z,1012.45
2018-07-10T08:06:42.158Z,1012.47
2018-07-10T08:08:34.776Z,1012.48
2018-07-10T08:09:34.137Z,1012.42
2018-07-10T08:11:28.577Z,1012.42
2018-07-10T08:12:28.050Z,1012.45
2018-07-10T08:14:21.143Z,1012.46
2018-07-10T08:15:20.823Z,1012.46
2018-07-10T08:17:15.501Z,1012.44
2018-07-10T08:18:14.191Z,1012.43
2018-07-10T08:20:07.759Z,1012.37
2018-07-10T08:21:07.955Z,1012.36
2018-07-10T08:23:01.271Z,1012.38
2018-07-10T08:24:00.877Z,1012.39
2018-07-10T08:25:54.591Z,1012.36
2018-07-10T08:26:54.467Z,1012.33
2018-07-10T08:28:49.197Z,1012.32
2018-07-10T08:29:48.298Z,1012.29
2018-07-10T08:31:42.246Z,1012.24
2018-07-10T08:32:41.560Z,1012.27
2018-07-10T08:34:35.847Z,1012.22
2018-07-10T08:35:34.653Z,1012.23
2018-07-10T08:37:30.342Z,1012.16
2018-07-10T08:38:28.744Z,1012.17
2018-07-10T08:40:23.171Z,1012.19
2018-07-10T08:41:22.142Z,1012.20
2018-07-10T08:43:15.470Z,1012.15
2018-07-10T08:44:15.423Z,1012.19
2018-07-10T08:46:08.842Z,1012.15
2018-07-10T08:47:08.926Z,1012.08
2018-07-10T08:49:02.535Z,1012.04
2018-07-10T08:50:01.493Z,1012.05
2018-07-10T08:51:55.387Z,1012.10
2018-07-10T08:52:55.247Z,1012.03
2018-07-10T08:54:48.384Z,1012.02
2018-07-10T08:55:48.893Z,1011.99
2018-07-10T08:57:42.696Z,1012.01
2018-07-10T08:58:44.756Z,1011.98
2018-07-10T09:00:34.714Z,1012.02
2018-07-10T09:01:33.800Z,1012.03
2018-07-10T09:03:27.631Z,1011.99
2018-07-10T09:04:27.225Z,1011.99
2018-07-10T09:06:21.037Z,1012.04
2018-07-10T09:07:21.006Z,1012.00
2018-07-10T09:09:17.354Z,1011.96
2018-07-10T09:10:13.549Z,1012.00
2018-07-10T09:12:09.199Z,1011.95
2018-07-10T09:13:08.337Z,1011.86
2018-07-10T09:15:05.694Z,1011.96
2018-07-10T09:16:03.513Z,1011.94
2018-07-10T09:17:56.119Z,1011.95
2018-07-10T09:18:54.871Z,1011.97
2018-07-10T09:20:48.644Z,1011.93
2018-07-10T09:21:48.207Z,1011.91
2018-07-10T09:23:41.582Z,1011.97
2018-07-10T09:24:41.595Z,1011.99
2018-07-10T09:26:35.312Z,1011.97
2018-07-10T09:27:35.277Z,1011.99
2018-07-10T09:29:28.715Z,1011.92
2018-07-10T09:30:28.426Z,1011.98
2018-07-10T09:32:21.593Z,1011.97
2018-07-10T09:33:21.254Z,1011.98
2018-07-10T09:35:14.834Z,1011.93
2018-07-10T09:36:14.791Z,1011.86
2018-07-10T09:38:07.774Z,1011.91
2018-07-10T09:39:07.529Z,1011.86
2018-07-10T09:41:01.354Z,1011.86
2018-07-10T09:42:00.928Z,1011.87
2018-07-10T09:43:54.701Z,1011.85
2018-07-10T09:44:54.340Z,1011.90
2018-07-10T09:46:47.792Z,1011.87
2018-07-10T09:47:47.738Z,1011.85
2018-07-10T09:49:41.144Z,1011.89
2018-07-10T09:50:40.718Z,1011.84
2018-07-10T09:52:33.950Z,1011.88
2018-07-10T09:53:33.596Z,1011.84
2018-07-10T09:55:26.564Z,1011.86
2018-07-10T09:56:26.638Z,1011.84
2018-07-10T09:58:20.331Z,1011.85
2018-07-10T09:59:19.916Z,1011.88
2018-07-10T10:01:13.376Z,1011.88
2018-07-10T10:02:13.293Z,1011.87
2018-07-10T10:04:06.681Z,1011.85
2018-07-10T10:05:06.688Z,1011.85
2018-07-10T10:07:07.961Z,1011.94
2018-07-10T10:08:07.898Z,1011.82
2018-07-10T10:09:52.987Z,1011.81
2018-07-10T10:10:52.953Z,1011.80
2018-07-10T10:12:45.863Z,1011.76
2018-07-10T10:13:46.148Z,1011.85
2018-07-10T10:15:39.454Z,1011.73
2018-07-10T10:16:39.228Z,1011.75
2018-07-10T10:18:32.181Z,1011.76
2018-07-10T10:19:32.119Z,1011.73
2018-07-10T10:21:25.057Z,1011.79
2018-07-10T10:22:25.024Z,1011.77
2018-07-10T10:24:18.433Z,1011.75
2018-07-10T10:25:18.416Z,1011.76
2018-07-10T10:27:11.879Z,1011.72
2018-07-10T10:28:11.791Z,1011.78
2018-07-10T10:30:06.717Z,1011.74
2018-07-10T10:31:05.667Z,1011.75
2018-07-10T10:33:00.027Z,1011.74
2018-07-10T10:33:59.344Z,1011.76
2018-07-10T10:35:52.304Z,1011.71
2018-07-10T10:36:52.003Z,1011.72
2018-07-10T10:38:45.573Z,1011.68
2018-07-10T10:39:45.333Z,1011.65
2018-07-10T10:41:38.789Z,1011.69
2018-07-10T10:42:38.747Z,1011.70
2018-07-10T10:44:32.517Z,1011.67
2018-07-10T10:45:32.111Z,1011.62
2018-07-10T10:47:25.108Z,1011.62
2018-07-10T10:48:26.891Z,1011.59
2018-07-10T10:50:18.228Z,1011.51
2018-07-10T10:51:17.897Z,1011.54
2018-07-10T10:53:11.264Z,1011.54
2018-07-10T10:54:11.456Z,1011.54
2018-07-10T10:56:04.991Z,1011.57
2018-07-10T10:57:04.189Z,1011.60
2018-07-10T10:58:57.236Z,1011.60
2018-07-10T10:59:57.215Z,1011.57
2018-07-10T11:01:51.013Z,1011.58
2018-07-10T11:02:50.614Z,1011.56
2018-07-10T11:04:44.033Z,1011.52
2018-07-10T11:05:43.973Z,1011.55
2018-07-10T11:07:39.452Z,1011.56
2018-07-10T11:08:38.302Z,1011.53
2018-07-10T11:10:31.654Z,1011.58
2018-07-10T11:11:31.345Z,1011.60
2018-07-10T11:13:25.712Z,1011.50
2018-07-10T11:14:24.702Z,1011.51
2018-07-10T11:16:18.060Z,1011.44
2018-07-10T11:17:17.646Z,1011.47
2018-07-10T11:19:11.949Z,1011.52
2018-07-10T11:20:11.577Z,1011.50
2018-07-10T11:22:06.262Z,1011.50
2018-07-10T11:23:05.514Z,1011.47
2018-07-10T11:24:59.770Z,1011.46
2018-07-10T11:25:58.769Z,1011.47
2018-07-10T11:27:53.457Z,1011.50
2018-07-10T11:28:53.197Z,1011.45
2018-07-10T11:30:46.779Z,1011.44
2018-07-10T11:31:45.895Z,1011.48
2018-07-10T11:33:41.766Z,1011.47
2018-07-10T11:34:40.302Z,1011.50
2018-07-10T11:36:34.173Z,1011.48
2018-07-10T11:37:33.692Z,1011.45
2018-07-10T11:39:27.592Z,1011.44
2018-07-10T11:40:27.423Z,1011.45
2018-07-10T11:42:22.403Z,1011.48
2018-07-10T11:43:21.805Z,1011.45
2018-07-10T11:45:15.245Z,1011.46
2018-07-10T11:46:13.971Z,1011.46
2018-07-10T11:48:09.023Z,1011.51
2018-07-10T11:49:07.342Z,1011.52
2018-07-10T11:51:01.344Z,1011.51
2018-07-10T11:52:00.653Z,1011.50
2018-07-10T11:53:54.172Z,1011.49
2018-07-10T11:54:53.749Z,1011.43
2018-07-10T11:56:48.128Z,1011.44
2018-07-10T11:57:48.109Z,1011.36
2018-07-10T11:59:45.220Z,1011.35
2018-07-10T12:00:40.533Z,1011.37
2018-07-10T12:02:34.915Z,1011.29
2018-07-10T12:03:33.980Z,1011.30
2018-07-10T12:05:27.737Z,1011.20
2018-07-10T12:06:27.674Z,1011.22
2018-07-10T12:08:21.159Z,1011.22
2018-07-10T12:09:21.049Z,1011.23
2018-07-10T12:11:36.580Z,1011.18
2018-07-10T12:12:14.047Z,1011.19
2018-07-10T12:14:07.684Z,1011.19
2018-07-10T12:15:07.409Z,1011.19
2018-07-10T12:17:00.383Z,1011.20
2018-07-10T12:17:59.978Z,1011.09
2018-07-10T12:19:53.768Z,1011.13
2018-07-10T12:20:53.445Z,1011.15
2018-07-10T12:22:48.209Z,1011.12
2018-07-10T12:23:47.212Z,1011.03
2018-07-10T12:25:40.773Z,1011.10
2018-07-10T12:26:39.974Z,1011.10
2018-07-10T12:28:33.766Z,1011.22
2018-07-10T12:29:32.942Z,1011.10
2018-07-10T12:31:30.414Z,1011.13
2018-07-10T12:32:28.893Z,1011.15
2018-07-10T12:34:21.096Z,1011.16
2018-07-10T12:35:20.921Z,1011.21
2018-07-10T12:37:24.291Z,1011.07
2018-07-10T12:38:24.217Z,1011.08
2018-07-10T12:40:18.150Z,1011.14
2018-07-10T12:41:18.542Z,1011.07
2018-07-10T12:43:11.317Z,1011.10
2018-07-10T12:44:11.254Z,1011.05
2018-07-10T12:46:04.635Z,1011.05
2018-07-10T12:47:04.203Z,1011.01
2018-07-10T12:48:57.989Z,1011.05
2018-07-10T12:49:57.625Z,1011.06
2018-07-10T12:51:52.940Z,1011.03
2018-07-10T12:52:51.888Z,1011.03
2018-07-10T12:54:44.817Z,1011.03
2018-07-10T12:55:43.905Z,1010.99
2018-07-10T12:57:37.650Z,1011.10
2018-07-10T12:58:37.875Z,1011.06
2018-07-10T13:00:31.515Z,1011.02
2018-07-10T13:01:31.035Z,1011.00
2018-07-10T13:03:24.463Z,1011.00
2018-07-10T13:04:24.422Z,1011.05
2018-07-10T13:06:19.258Z,1011.05
2018-07-10T13:07:17.970Z,1011.03
2018-07-10T13:09:18.238Z,1011.01
2018-07-10T13:10:18.182Z,1011.00
2018-07-10T13:12:12.737Z,1011.00
2018-07-10T13:13:11.134Z,1011.00
2018-07-10T13:15:05.018Z,1010.99
2018-07-10T13:16:04.610Z,1010.95
2018-07-10T13:17:58.884Z,1010.98
2018-07-10T13:18:58.342Z,1010.98
2018-07-10T13:20:51.776Z,1010.97
2018-07-10T13:21:51.492Z,1010.97
2018-07-10T13:23:55.458Z,1010.95
2018-07-10T13:24:44.878Z,1010.92
2018-07-10T13:26:38.835Z,1010.94
2018-07-10T13:27:39.360Z,1010.91
2018-07-10T13:29:39.332Z,1010.95
2018-07-10T13:30:39.335Z,1010.97
2018-07-10T13:32:33.586Z,1010.98
2018-07-10T13:33:32.691Z,1010.96
2018-07-10T13:35:27.044Z,1010.93
2018-07-10T13:36:26.690Z,1010.97
2018-07-10T13:38:23.043Z,1010.91
2018-07-10T13:39:19.946Z,1010.96
2018-07-10T13:41:13.592Z,1010.93
2018-07-10T13:42:13.849Z,1010.92
2018-07-10T13:44:07.324Z,1010.95
2018-07-10T13:45:06.873Z,1010.91
2018-07-10T13:47:06.794Z,1010.88
2018-07-10T13:48:06.714Z,1010.91
2018-07-10T13:50:00.493Z,1010.98
2018-07-10T13:51:00.129Z,1010.88
2018-07-10T13:52:53.951Z,1010.84
2018-07-10T13:53:53.893Z,1010.90
2018-07-10T13:55:47.235Z,1010.72
2018-07-10T13:56:46.959Z,1010.74
2018-07-10T13:58:42.839Z,1010.72
2018-07-10T13:59:41.211Z,1010.74
2018-07-10T14:01:35.046Z,1010.73
2018-07-10T14:02:35.543Z,1010.80
2018-07-10T14:04:28.480Z,1010.74
2018-07-10T14:05:28.377Z,1010.78
2018-07-10T14:07:21.794Z,1010.82
2018-07-10T14:08:21.795Z,1010.75
2018-07-10T14:10:14.803Z,1010.70
2018-07-10T14:11:14.380Z,1010.72
2018-07-10T14:13:08.732Z,1010.65
2018-07-10T14:14:08.145Z,1010.59
2018-07-10T14:16:01.570Z,1010.62
2018-07-10T14:17:02.598Z,1010.60
2018-07-10T14:19:02.001Z,1010.44
2018-07-10T14:20:01.847Z,1010.42
2018-07-10T14:21:55.227Z,1010.36
2018-07-10T14:22:54.987Z,1010.30
2018-07-10T14:24:58.730Z,1010.39
2018-07-10T14:25:48.357Z,1010.43
2018-07-10T14:27:46.671Z,1010.40
2018-07-10T14:28:41.669Z,1010.43
2018-07-10T14:30:34.738Z,1010.44
2018-07-10T14:31:34.624Z,1010.45
2018-07-10T14:33:28.560Z,1010.45
2018-07-10T14:34:28.750Z,1010.37
2018-07-10T14:36:21.649Z,1010.29
2018-07-10T14:37:22.051Z,1010.33
2018-07-10T14:39:15.060Z,1010.26
2018-07-10T14:40:15.016Z,1010.28
2018-07-10T14:42:08.464Z,1010.26
2018-07-10T14:43:08.335Z,1010.22
2018-07-10T14:45:02.034Z,1010.20
2018-07-10T14:46:02.434Z,1010.12
2018-07-10T14:47:58.730Z,1010.11
2018-07-10T14:48:55.230Z,1010.08
2018-07-10T14:50:48.646Z,1010.09
2018-07-10T14:51:47.713Z,1009.97
2018-07-10T14:53:42.446Z,1010.10
2018-07-10T14:54:43.731Z,1010.10
2018-07-10T14:56:37.097Z,1010.15
2018-07-10T14:57:35.632Z,1010.05
2018-07-10T14:59:29.158Z,1010.04
2018-07-10T15:00:28.812Z,1010.01
2018-07-10T15:02:23.703Z,1009.98
2018-07-10T15:03:22.682Z,1009.97
2018-07-10T15:05:16.580Z,1009.94
2018-07-10T15:06:15.974Z,1009.89
2018-07-10T15:08:09.665Z,1009.89
2018-07-10T15:09:09.195Z,1009.90
2018-07-10T15:11:02.515Z,1009.97
2018-07-10T15:12:02.501Z,1009.93
2018-07-10T15:13:55.548Z,1009.89
2018-07-10T15:14:55.714Z,1009.87
2018-07-10T15:16:56.931Z,1009.86
2018-07-10T15:17:50.751Z,1009.84
2018-07-10T15:19:44.623Z,1009.78
2018-07-10T15:20:44.271Z,1009.81
2018-07-10T15:22:37.848Z,1009.78
2018-07-10T15:23:37.026Z,1009.79
2018-07-10T15:25:31.506Z,1009.74
2018-07-10T15:26:30.989Z,1009.75
2018-07-10T15:28:23.811Z,1009.80
2018-07-10T15:29:23.873Z,1009.79
2018-07-10T15:31:17.754Z,1009.82
2018-07-10T15:32:19.427Z,1009.81
2018-07-10T15:34:10.677Z,1009.79
2018-07-10T15:35:10.205Z,1009.77
2018-07-10T15:37:06.972Z,1009.78
2018-07-10T15:38:05.165Z,1009.77
2018-07-10T15:39:57.987Z,1009.77
2018-07-10T15:40:57.630Z,1009.78
2018-07-10T15:42:52.482Z,1009.78
2018-07-10T15:43:50.819Z,1009.76
2018-07-10T15:45:43.872Z,1009.74
2018-07-10T15:46:51.767Z,1009.72
2018-07-10T15:48:37.700Z,1009.68
2018-07-10T15:49:37.131Z,1009.68
2018-07-10T15:51:31.526Z,1009.64
2018-07-10T15:52:31.387Z,1009.61
2018-07-10T15:54:24.317Z,1009.59
2018-07-10T15:55:23.897Z,1009.60
2018-07-10T15:57:17.844Z,1009.58
2018-07-10T15:58:18.745Z,1009.60
2018-07-10T16:00:10.257Z,1009.52
2018-07-10T16:01:09.767Z,1009.54
2018-07-10T16:03:03.480Z,1009.51
2018-07-10T16:04:03.139Z,1009.52
2018-07-10T16:05:56.661Z,1009.45
2018-07-10T16:06:56.710Z,1009.45
2018-07-10T16:08:49.722Z,1009.47
2018-07-10T16:09:49.647Z,1009.46
2018-07-10T16:11:43.114Z,1009.51
2018-07-10T16:12:43.199Z,1009.52
2018-07-10T16:14:36.456Z,1009.49
2018-07-10T16:15:36.442Z,1009.49
2018-07-10T16:17:30.745Z,1009.46
2018-07-10T16:18:29.252Z,1009.47
2018-07-10T16:20:22.703Z,1009.55
2018-07-10T16:21:22.455Z,1009.57
2018-07-10T16:23:16.395Z,1009.60
2018-07-10T16:24:15.929Z,1009.61
2018-07-10T16:26:12.271Z,1009.68
2018-07-10T16:27:10.769Z,1009.60
2018-07-10T16:29:03.883Z,1009.59
2018-07-10T16:30:03.255Z,1009.57
2018-07-10T16:31:57.088Z,1009.49
2018-07-10T16:32:56.690Z,1009.58
2018-07-10T16:34:49.611Z,1009.47
2018-07-10T16:35:49.532Z,1009.51
2018-07-10T16:37:43.946Z,1009.46
2018-07-10T16:38:43.002Z,1009.44
2018-07-10T16:40:37.010Z,1009.45
2018-07-10T16:41:36.765Z,1009.48
2018-07-10T16:43:30.586Z,1009.46
2018-07-10T16:44:30.702Z,1009.48
2018-07-10T16:46:23.330Z,1009.43
2018-07-10T16:47:23.308Z,1009.42
2018-07-10T16:49:19.771Z,1009.45
2018-07-10T16:50:17.201Z,1009.46
2018-07-10T16:52:10.041Z,1009.43
2018-07-10T16:53:11.568Z,1009.44
2018-07-10T16:55:03.541Z,1009.44
2018-07-10T16:56:02.902Z,1009.42
2018-07-10T16:57:56.380Z,1009.43
2018-07-10T16:58:55.881Z,1009.45
2018-07-10T17:00:55.415Z,1009.39
2018-07-10T17:01:54.230Z,1009.36
2018-07-10T17:03:47.594Z,1009.34
2018-07-10T17:04:47.542Z,1009.23
2018-07-10T17:06:41.071Z,1009.28
2018-07-10T17:07:40.584Z,1009.29
2018-07-10T17:09:33.439Z,1009.25
2018-07-10T17:10:33.432Z,1009.23
2018-07-10T17:12:27.207Z,1009.24
2018-07-10T17:13:27.436Z,1009.24
2018-07-10T17:15:22.066Z,1009.31
2018-07-10T17:16:21.761Z,1009.26
2018-07-10T17:18:13.923Z,1009.24
2018-07-10T17:19:13.595Z,1009.26
2018-07-10T17:21:07.190Z,1009.16
2018-07-10T17:22:07.164Z,1009.15
2018-07-10T17:24:00.738Z,1009.21
2018-07-10T17:24:59.799Z,1009.10
2018-07-10T17:26:54.191Z,1009.07
2018-07-10T17:27:54.138Z,1009.04
2018-07-10T17:29:49.547Z,1009.06
2018-07-10T17:30:47.569Z,1009.03
2018-07-10T17:32:41.105Z,1008.93
2018-07-10T17:33:41.031Z,1009.08
2018-07-10T17:35:34.360Z,1009.03
2018-07-10T17:36:33.638Z,1008.99
2018-07-10T17:38:28.847Z,1009.06
2018-07-10T17:39:27.100Z,1008.97
2018-07-10T17:41:26.170Z,1008.98
2018-07-10T17:42:23.905Z,1008.95
2018-07-10T17:44:15.558Z,1008.95
2018-07-10T17:45:15.143Z,1008.93
2018-07-10T17:47:07.871Z,1009.01
2018-07-10T17:48:07.806Z,1008.92
2018-07-10T17:50:05.668Z,1008.88
2018-07-10T17:51:02.258Z,1008.92
2018-07-10T17:53:00.247Z,1008.88
2018-07-10T17:53:59.643Z,1008.90
2018-07-10T17:55:53.551Z,1008.89
2018-07-10T17:56:53.494Z,1008.92
2018-07-10T17:58:47.988Z,1008.81
2018-07-10T17:59:46.500Z,1008.81
2018-07-10T18:01:40.517Z,1008.80
2018-07-10T18:02:42.388Z,1008.84
2018-07-10T18:04:38.560Z,1008.83
2018-07-10T18:05:33.007Z,1008.85
2018-07-10T18:07:26.986Z,1008.82
2018-07-10T18:08:25.513Z,1008.82
2018-07-10T18:10:20.055Z,1008.87
2018-07-10T18:11:19.667Z,1008.91
2018-07-10T18:13:15.069Z,1008.93
2018-07-10T18:14:13.217Z,1008.90
2018-07-10T18:16:07.243Z,1008.98
2018-07-10T18:17:07.446Z,1008.93
2018-07-10T18:18:59.948Z,1008.92
2018-07-10T18:20:02.523Z,1008.90
2018-07-10T18:21:55.047Z,1008.84
2018-07-10T18:22:54.603Z,1008.91
2018-07-10T18:24:47.596Z,1008.91
2018-07-10T18:27:03.010Z,1008.93
2018-07-10T18:28:01.133Z,1008.95
2018-07-10T18:29:54.371Z,1008.90
2018-07-10T18:30:54.170Z,1008.87
2018-07-10T18:32:48.312Z,1008.88
2018-07-10T18:33:48.332Z,1008.92
2018-07-10T18:35:51.180Z,1008.85
2018-07-10T18:38:34.226Z,1008.90
2018-07-10T18:40:49.896Z,1008.84
2018-07-10T18:41:48.745Z,1008.81
2018-07-10T18:43:41.476Z,1008.77
2018-07-10T18:44:41.877Z,1008.78
2018-07-10T18:46:34.181Z,1008.77
2018-07-10T18:47:33.293Z,1008.86
2018-07-10T18:49:27.156Z,1009.00
2018-07-10T18:50:26.662Z,1009.10
2018-07-10T18:52:21.368Z,1009.41
2018-07-10T18:53:21.331Z,1009.42
2018-07-10T18:55:15.963Z,1009.40
2018-07-10T18:56:15.097Z,1009.36
2018-07-10T18:58:07.911Z,1009.24
2018-07-10T18:59:07.434Z,1009.20
2018-07-10T19:01:04.322Z,1009.33
2018-07-10T19:03:57.830Z,1009.37
2018-07-10T19:04:57.272Z,1009.43
2018-07-10T19:06:55.096Z,1009.48
2018-07-10T19:10:52.429Z,1009.44
2018-07-10T19:14:42.968Z,1009.35
2018-07-10T19:15:35.596Z,1009.38
2018-07-10T19:17:30.058Z,1009.44
2018-07-10T19:20:25.285Z,1009.44
2018-07-10T19:21:22.977Z,1009.49
2018-07-10T19:23:21.514Z,1009.49
2018-07-10T19:24:16.157Z,1009.47
2018-07-10T19:26:26.526Z,1009.43
2018-07-10T19:27:24.560Z,1009.47
2018-07-10T19:29:17.839Z,1009.47
2018-07-10T19:30:18.330Z,1009.48
2018-07-10T19:32:12.081Z,1009.56
2018-07-10T19:33:11.908Z,1009.54
2018-07-10T19:35:04.395Z,1009.49
2018-07-10T19:36:05.129Z,1009.54
2018-07-10T19:37:59.209Z,1009.52
2018-07-10T19:38:57.832Z,1009.51
2018-07-10T19:40:53.316Z,1009.49
2018-07-10T19:41:53.487Z,1009.46
2018-07-10T19:44:02.556Z,1009.48
2018-07-10T19:45:00.865Z,1009.49
2018-07-10T19:47:07.023Z,1009.44
2018-07-10T19:48:06.840Z,1009.46
2018-07-10T19:50:01.200Z,1009.51
2018-07-10T19:52:55.565Z,1009.52
2018-07-10T19:53:54.578Z,1009.53
2018-07-10T19:55:48.365Z,1009.52
2018-07-10T19:56:46.664Z,1009.56
2018-07-10T20:01:44.439Z,1009.57
2018-07-10T20:02:40.445Z,1009.56
2018-07-10T20:05:26.446Z,1009.61
2018-07-10T20:06:25.505Z,1009.64
2018-07-10T20:08:20.652Z,1009.66
2018-07-10T20:09:20.170Z,1009.66
2018-07-10T20:11:13.093Z,1009.72
2018-07-10T20:12:11.977Z,1009.72
2018-07-10T20:14:04.811Z,1009.70
2018-07-10T20:15:05.785Z,1009.67
2018-07-10T20:16:58.356Z,1009.71
2018-07-10T20:17:57.784Z,1009.69
2018-07-10T20:19:53.541Z,1009.66
2018-07-10T20:20:52.351Z,1009.63
2018-07-10T20:22:45.814Z,1009.69
2018-07-10T20:23:44.923Z,1009.68
2018-07-10T20:25:40.988Z,1009.70
2018-07-10T20:26:38.782Z,1009.71
2018-07-10T20:28:35.216Z,1009.69
2018-07-10T20:29:33.316Z,1009.73
2018-07-10T20:32:18.615Z,1009.69
2018-07-10T20:33:17.689Z,1009.73
2018-07-10T20:35:10.736Z,1009.65
2018-07-10T20:36:09.742Z,1009.65
2018-07-10T20:38:05.125Z,1009.70
2018-07-10T20:39:04.121Z,1009.68
2018-07-10T20:40:58.850Z,1009.71
2018-07-10T20:41:57.275Z,1009.68
2018-07-10T20:43:52.644Z,1009.65
2018-07-10T20:44:53.042Z,1009.67
2018-07-10T20:46:45.253Z,1009.68
2018-07-10T20:47:45.259Z,1009.67
2018-07-10T20:49:40.152Z,1009.71
2018-07-10T20:50:40.050Z,1009.77
2018-07-10T20:52:33.942Z,1009.78
2018-07-10T20:53:31.540Z,1009.81
2018-07-10T20:55:26.201Z,1009.77
2018-07-10T20:56:25.962Z,1009.80
2018-07-10T20:58:19.360Z,1009.79
2018-07-10T20:59:19.975Z,1009.84
2018-07-10T21:01:12.191Z,1009.82
2018-07-10T21:02:12.054Z,1009.79
2018-07-10T21:04:05.403Z,1009.81
2018-07-10T21:05:04.663Z,1009.78
2018-07-10T21:06:58.350Z,1009.75
2018-07-10T21:07:58.327Z,1009.78
2018-07-10T21:09:51.277Z,1009.82
2018-07-10T21:10:51.221Z,1009.83
2018-07-10T21:12:45.150Z,1009.82
2018-07-10T21:13:45.108Z,1009.85
2018-07-10T21:15:39.572Z,1009.83
2018-07-10T21:16:39.140Z,1009.84
2018-07-10T21:18:33.129Z,1009.82
2018-07-10T21:19:32.969Z,1009.84
2018-07-10T21:21:25.448Z,1009.88
2018-07-10T21:22:25.406Z,1009.87
2018-07-10T21:24:18.336Z,1009.91
2018-07-10T21:25:18.241Z,1009.94
2018-07-10T21:27:11.355Z,1009.98
2018-07-10T21:28:11.123Z,1009.94
2018-07-10T21:30:05.388Z,1009.95
2018-07-10T21:31:04.486Z,1009.91
2018-07-10T21:32:58.075Z,1009.91
2018-07-10T21:33:57.919Z,1009.95
2018-07-10T21:35:51.320Z,1009.97
2018-07-10T21:36:51.258Z,1009.93
2018-07-10T21:38:44.726Z,1009.94
2018-07-10T21:39:44.628Z,1009.97
2018-07-10T21:41:37.536Z,1009.97
2018-07-10T21:42:37.521Z,1009.99
2018-07-10T21:44:30.883Z,1010.00
2018-07-10T21:45:30.861Z,1010.02
2018-07-10T21:47:24.292Z,1010.00
2018-07-10T21:48:24.300Z,1010.02
2018-07-10T21:50:17.672Z,1010.02
2018-07-10T21:51:17.605Z,1010.05
2018-07-10T21:53:11.051Z,1010.01
2018-07-10T21:54:10.749Z,1010.02
2018-07-10T21:56:03.975Z,1009.98
2018-07-10T21:57:03.630Z,1010.01
2018-07-10T21:58:57.078Z,1010.01
2018-07-10T21:59:57.014Z,1009.97
2018-07-10T22:01:49.988Z,1010.01
2018-07-10T22:02:49.957Z,1010.02
2018-07-10T22:04:42.883Z,1010.00
2018-07-10T22:05:42.855Z,1009.98
2018-07-10T22:07:36.044Z,1010.02
2018-07-10T22:08:35.733Z,1010.03
2018-07-10T22:10:28.993Z,1010.08
2018-07-10T22:11:28.967Z,1010.07
2018-07-10T22:13:21.990Z,1010.09
2018-07-10T22:14:21.939Z,1010.09
2018-07-10T22:16:15.645Z,1010.13
2018-07-10T22:17:15.604Z,1010.15
2018-07-10T22:19:08.637Z,1010.15
2018-07-10T22:20:08.623Z,1010.14
2018-07-10T22:22:02.065Z,1010.15
2018-07-10T22:23:01.997Z,1010.16
2018-07-10T22:24:56.437Z,1010.13
2018-07-10T22:25:55.067Z,1010.17
2018-07-10T22:27:48.503Z,1010.16
2018-07-10T22:28:48.405Z,1010.16
2018-07-10T22:30:42.137Z,1010.20
2018-07-10T22:31:41.846Z,1010.16
2018-07-10T22:33:35.789Z,1010.20
2018-07-10T22:34:35.149Z,1010.23
2018-07-10T22:36:28.838Z,1010.22
2018-07-10T22:37:28.904Z,1010.21
2018-07-10T22:39:22.306Z,1010.23
2018-07-10T22:40:22.214Z,1010.18
2018-07-10T22:42:15.701Z,1010.16
2018-07-10T22:43:15.084Z,1010.18
2018-07-10T22:45:08.192Z,1010.19
2018-07-10T22:46:08.156Z,1010.20
2018-07-10T22:48:01.403Z,1010.17
2018-07-10T22:49:01.359Z,1010.18
2018-07-10T22:50:54.334Z,1010.19
2018-07-10T22:51:54.306Z,1010.16
2018-07-10T22:53:47.228Z,1010.20
2018-07-10T22:54:46.873Z,1010.18
2018-07-10T22:56:41.175Z,1010.22
2018-07-10T22:57:40.580Z,1010.27
2018-07-10T22:59:33.930Z,1010.25
2018-07-10T23:00:33.608Z,1010.25
2018-07-10T23:02:27.277Z,1010.26
2018-07-10T23:03:27.252Z,1010.28
2018-07-10T23:05:20.177Z,1010.25
2018-07-10T23:06:20.122Z,1010.24
2018-07-10T23:08:13.546Z,1010.27
2018-07-10T23:09:13.442Z,1010.23
2018-07-10T23:11:06.070Z,1010.22
2018-07-10T23:12:06.077Z,1010.21
2018-07-10T23:13:59.322Z,1010.27
2018-07-10T23:14:59.254Z,1010.25
2018-07-10T23:16:52.408Z,1010.23
2018-07-10T23:17:52.302Z,1010.23
2018-07-10T23:19:45.610Z,1010.20
2018-07-10T23:20:45.179Z,1010.19
2018-07-10T23:22:38.860Z,1010.22
2018-07-10T23:23:38.571Z,1010.24
2018-07-10T23:25:31.939Z,1010.24
2018-07-10T23:26:31.931Z,1010.24
2018-07-10T23:28:24.822Z,1010.26
2018-07-10T23:29:24.824Z,1010.26
2018-07-10T23:31:18.580Z,1010.25
2018-07-10T23:32:18.481Z,1010.25